Time;durP1;ratioP1;P1;durP2;ratioP2;P2;SDS_P1;SDS_P2;PMS_P1;PMS_P2;Temp;Humidity;BMP_temperature;BMP_pressure;BME280_temperature;BME280_humidity;BME280_pressure;Samples;Min_cycle;Max_cycle;Signal;HPM_P1;HPM_P2
2021/08/19 00:00:00;;;;;;;9.60;8.00;;;17.20;99.90;;;;;;5093301;28;20454;-71
2021/08/19 00:02:25;;;;;;;10.33;8.87;;;17.20;99.90;;;;;;5093258;28;20670;-71
2021/08/19 00:04:51;;;;;;;18.60;9.67;;;17.20;99.90;;;;;;5093090;28;20579;-70
2021/08/19 00:07:18;;;;;;;11.73;9.53;;;17.20;99.90;;;;;;5093229;28;20208;-71
2021/08/19 00:09:43;;;;;;;10.77;9.03;;;17.20;99.90;;;;;;5093613;28;20423;-71
2021/08/19 00:12:09;;;;;;;12.00;8.73;;;17.20;99.90;;;;;;5107059;28;20455;-71
2021/08/19 00:14:36;;;;;;;13.53;11.03;;;17.20;99.90;;;;;;5113260;28;20207;-71
2021/08/19 00:17:03;;;;;;;12.80;9.60;;;17.20;99.90;;;;;;5095199;28;20253;-71
2021/08/19 00:19:29;;;;;;;13.90;9.90;;;17.20;99.90;;;;;;5093050;28;20396;-70
2021/08/19 00:21:55;;;;;;;10.17;8.50;;;17.20;99.90;;;;;;5092968;28;20848;-70
2021/08/19 00:24:20;;;;;;;12.00;9.53;;;17.20;99.90;;;;;;5093195;28;20205;-71
2021/08/19 00:26:46;;;;;;;12.07;9.67;;;17.20;99.90;;;;;;5093165;28;20513;-71
2021/08/19 00:29:11;;;;;;;12.00;9.23;;;17.20;99.90;;;;;;5092799;28;20631;-71
2021/08/19 00:31:37;;;;;;;9.10;8.20;;;17.20;99.90;;;;;;5092739;28;20190;-70
2021/08/19 00:34:02;;;;;;;11.53;9.10;;;17.20;99.90;;;;;;5092607;28;20178;-71
2021/08/19 00:36:28;;;;;;;13.10;10.33;;;17.20;99.90;;;;;;5092760;28;20159;-71
2021/08/19 00:38:53;;;;;;;10.90;9.30;;;17.20;99.90;;;;;;5092781;28;20507;-71
2021/08/19 00:41:19;;;;;;;14.97;9.10;;;17.20;99.90;;;;;;5092668;28;20155;-71
2021/08/19 00:43:45;;;;;;;12.80;10.17;;;17.20;99.90;;;;;;5093174;28;20181;-71
2021/08/19 00:46:32;;;;;;;11.80;9.40;;;17.20;99.90;;;;;;5092540;28;20871;-71
2021/08/19 00:51:39;;;;;;;9.47;8.47;;;17.30;99.90;;;;;;5069906;28;20544;-70
2021/08/19 00:54:08;;;;;;;9.73;8.73;;;17.20;99.90;;;;;;5069625;28;20731;-70
2021/08/19 00:56:35;;;;;;;9.57;7.83;;;17.20;99.90;;;;;;5069774;28;20440;-70
2021/08/19 00:59:03;;;;;;;10.23;8.70;;;17.20;99.90;;;;;;5069573;28;20449;-70
2021/08/19 01:01:31;;;;;;;11.57;9.53;;;17.30;99.90;;;;;;5061638;28;20738;-70
2021/08/19 01:03:56;;;;;;;11.00;8.37;;;17.20;99.90;;;;;;5049511;28;20391;-70
2021/08/19 01:06:22;;;;;;;12.53;9.03;;;17.20;99.90;;;;;;5049934;28;20463;-70
2021/08/19 01:08:47;;;;;;;11.80;8.57;;;17.20;99.90;;;;;;5049521;28;20161;-69
2021/08/19 01:11:14;;;;;;;10.30;8.60;;;17.20;99.90;;;;;;5049223;28;20663;-70
2021/08/19 01:13:40;;;;;;;13.67;9.80;;;17.30;99.90;;;;;;5056418;28;20166;-70
2021/08/19 01:16:06;;;;;;;11.27;8.73;;;17.30;99.90;;;;;;5069254;28;20474;-70
2021/08/19 01:18:41;;;;;;;12.03;9.20;;;17.30;99.90;;;;;;5068257;28;20174;-69
2021/08/19 01:21:08;;;;;;;14.43;9.80;;;17.30;99.90;;;;;;5069292;28;20211;-70
2021/08/19 01:23:34;;;;;;;13.53;9.90;;;17.30;99.90;;;;;;5069163;28;20889;-70
2021/08/19 01:26:04;;;;;;;12.50;9.90;;;17.30;99.90;;;;;;5069180;28;20456;-70
2021/08/19 01:28:30;;;;;;;14.40;9.73;;;17.30;99.90;;;;;;5069095;28;20693;-70
2021/08/19 01:30:55;;;;;;;10.53;9.50;;;17.30;99.90;;;;;;5068942;28;20524;-70
2021/08/19 01:33:24;;;;;;;11.80;9.43;;;17.30;99.90;;;;;;5068941;28;20156;-70
2021/08/19 01:35:50;;;;;;;11.40;8.93;;;17.30;99.90;;;;;;5068759;28;20168;-70
2021/08/19 01:38:15;;;;;;;12.70;9.17;;;17.30;99.90;;;;;;5068775;28;20489;-70
2021/08/19 01:40:41;;;;;;;10.70;8.73;;;17.30;99.90;;;;;;5068832;28;20156;-69
2021/08/19 01:43:08;;;;;;;11.60;8.40;;;17.30;99.90;;;;;;5068753;28;20238;-69
2021/08/19 01:45:33;;;;;;;12.37;8.50;;;17.30;99.90;;;;;;5068472;28;20225;-70
2021/08/19 01:47:59;;;;;;;14.00;9.17;;;17.30;99.90;;;;;;5056457;28;20408;-69
2021/08/19 01:50:25;;;;;;;10.40;7.53;;;17.30;99.90;;;;;;5048678;28;20284;-70
2021/08/19 01:52:50;;;;;;;11.67;7.67;;;17.30;99.90;;;;;;5049303;28;20170;-70
2021/08/19 01:55:16;;;;;;;8.70;7.67;;;17.30;99.90;;;;;;5048807;28;20544;-70
2021/08/19 01:57:41;;;;;;;13.30;8.83;;;17.30;99.90;;;;;;5048748;28;20610;-70
2021/08/19 02:00:07;;;;;;;7.77;6.67;;;17.30;99.90;;;;;;5048608;28;20678;-70
2021/08/19 02:02:33;;;;;;;10.20;7.50;;;17.30;99.90;;;;;;5038177;28;20211;-70
2021/08/19 02:04:58;;;;;;;8.20;6.67;;;17.30;99.90;;;;;;5035126;28;20488;-70
2021/08/19 02:07:24;;;;;;;11.10;7.47;;;17.30;99.90;;;;;;5035291;28;20157;-70
2021/08/19 02:09:49;;;;;;;12.77;7.00;;;17.30;99.90;;;;;;5045144;28;20582;-70
2021/08/19 02:12:15;;;;;;;9.80;7.47;;;17.30;99.90;;;;;;5055063;28;20203;-70
2021/08/19 02:14:40;;;;;;;9.73;6.27;;;17.30;99.90;;;;;;5054913;28;20168;-70
2021/08/19 02:17:06;;;;;;;8.03;6.03;;;17.30;99.90;;;;;;5054713;28;20167;-70
2021/08/19 02:19:32;;;;;;;9.43;7.03;;;17.30;99.90;;;;;;5035155;28;20200;-70
2021/08/19 02:21:57;;;;;;;8.33;6.70;;;17.30;99.90;;;;;;5034951;28;20152;-70
2021/08/19 02:24:23;;;;;;;7.30;6.07;;;17.30;99.90;;;;;;5034991;28;20173;-70
2021/08/19 02:26:49;;;;;;;9.17;7.23;;;17.30;99.90;;;;;;5035273;28;20209;-70
2021/08/19 02:29:14;;;;;;;9.00;6.90;;;17.30;99.90;;;;;;5034580;28;20157;-70
2021/08/19 02:31:41;;;;;;;8.60;6.33;;;17.30;99.90;;;;;;5035177;28;20192;-70
2021/08/19 02:34:08;;;;;;;8.17;5.90;;;17.30;99.90;;;;;;5034606;28;20161;-69
2021/08/19 02:36:34;;;;;;;10.93;7.53;;;17.30;99.90;;;;;;5035002;28;20878;-70
2021/08/19 02:38:59;;;;;;;7.30;5.70;;;17.30;99.90;;;;;;5034385;28;20414;-70
2021/08/19 02:41:25;;;;;;;6.93;6.10;;;17.30;99.90;;;;;;5034559;28;20165;-70
2021/08/19 02:43:50;;;;;;;7.20;5.77;;;17.30;99.90;;;;;;5034772;28;20167;-70
2021/08/19 02:46:16;;;;;;;7.33;5.77;;;17.30;99.90;;;;;;5034488;28;20195;-69
2021/08/19 02:48:42;;;;;;;8.93;7.77;;;17.30;99.90;;;;;;5034273;28;20183;-70
2021/08/19 02:51:07;;;;;;;13.10;6.73;;;17.30;99.90;;;;;;5034288;28;20204;-70
2021/08/19 02:53:33;;;;;;;10.67;7.50;;;17.30;99.90;;;;;;5034348;28;20774;-70
2021/08/19 02:55:59;;;;;;;9.90;7.47;;;17.30;99.90;;;;;;5034338;28;20168;-70
2021/08/19 02:58:25;;;;;;;12.23;7.30;;;17.30;99.90;;;;;;5034083;28;20168;-70
2021/08/19 03:00:50;;;;;;;8.10;6.10;;;17.20;99.90;;;;;;5034711;28;20576;-70
2021/08/19 03:03:16;;;;;;;10.23;6.53;;;17.20;99.90;;;;;;5034086;28;20166;-69
2021/08/19 03:05:41;;;;;;;10.03;6.97;;;17.20;99.90;;;;;;5034274;28;20513;-70
2021/08/19 03:08:07;;;;;;;9.13;7.20;;;17.20;99.90;;;;;;5034060;28;20995;-70
2021/08/19 03:10:32;;;;;;;7.20;6.20;;;17.20;99.90;;;;;;5042640;28;20210;-70
2021/08/19 03:12:58;;;;;;;12.83;7.50;;;17.20;99.90;;;;;;5052912;28;20189;-70
2021/08/19 03:15:23;;;;;;;9.77;5.80;;;17.20;99.90;;;;;;5053454;28;20169;-69
2021/08/19 03:17:49;;;;;;;8.90;6.13;;;17.10;99.90;;;;;;5047302;28;20253;-70
2021/08/19 03:20:14;;;;;;;8.03;7.23;;;17.10;99.90;;;;;;5034021;28;20164;-70
2021/08/19 03:22:40;;;;;;;8.80;6.90;;;17.10;99.90;;;;;;5033752;28;20153;-70
2021/08/19 03:25:08;;;;;;;9.50;6.67;;;17.10;99.90;;;;;;5033658;28;20180;-70
2021/08/19 03:27:34;;;;;;;7.10;6.17;;;17.10;99.90;;;;;;5033624;28;20537;-70
2021/08/19 03:30:00;;;;;;;9.20;7.10;;;17.10;99.90;;;;;;5033415;28;20535;-70
2021/08/19 03:32:26;;;;;;;11.40;6.93;;;17.00;99.90;;;;;;5033583;28;20478;-70
2021/08/19 03:34:51;;;;;;;8.13;7.10;;;17.00;99.90;;;;;;5034396;28;20173;-70
2021/08/19 03:37:17;;;;;;;10.20;6.53;;;17.00;99.90;;;;;;5033282;28;20199;-70
2021/08/19 03:39:42;;;;;;;7.47;6.43;;;17.00;99.90;;;;;;5033459;28;20528;-70
2021/08/19 03:42:08;;;;;;;8.90;5.70;;;16.90;99.90;;;;;;5033470;28;20239;-70
2021/08/19 03:44:34;;;;;;;7.20;6.00;;;16.90;99.90;;;;;;5032778;28;20594;-70
2021/08/19 03:47:00;;;;;;;7.03;6.20;;;16.90;99.90;;;;;;5036268;28;20415;-70
2021/08/19 03:49:26;;;;;;;6.60;5.60;;;16.90;99.90;;;;;;5037075;28;20184;-70
2021/08/19 03:51:52;;;;;;;6.90;5.30;;;16.90;99.90;;;;;;5042720;28;20590;-70
2021/08/19 03:54:18;;;;;;;6.43;5.20;;;16.90;99.90;;;;;;5043279;28;20175;-70
2021/08/19 03:56:44;;;;;;;6.83;5.40;;;16.90;99.90;;;;;;5038243;28;20423;-70
2021/08/19 03:59:09;;;;;;;6.37;5.20;;;16.80;99.90;;;;;;5044451;28;20204;-71
2021/08/19 04:01:36;;;;;;;8.40;6.67;;;16.80;99.90;;;;;;5053049;28;20406;-70
2021/08/19 04:04:02;;;;;;;7.90;6.50;;;16.80;99.90;;;;;;5044229;28;20177;-70
2021/08/19 04:06:27;;;;;;;7.53;6.73;;;16.80;99.90;;;;;;5053203;28;20394;-70
2021/08/19 04:08:53;;;;;;;8.67;6.67;;;16.80;99.90;;;;;;5051954;28;20410;-70
2021/08/19 04:11:19;;;;;;;10.90;6.33;;;16.80;99.90;;;;;;5052793;28;20325;-70
2021/08/19 04:13:44;;;;;;;9.87;6.90;;;16.80;99.90;;;;;;5052690;28;20474;-70
2021/08/19 04:16:10;;;;;;;10.97;7.43;;;16.80;99.90;;;;;;5053032;28;20160;-70
2021/08/19 04:18:36;;;;;;;10.33;7.20;;;16.80;99.90;;;;;;5053008;28;20157;-70
2021/08/19 04:21:03;;;;;;;9.87;7.67;;;16.80;99.90;;;;;;5052736;28;20259;-70
2021/08/19 04:23:29;;;;;;;11.60;8.53;;;16.80;99.90;;;;;;5052732;28;20188;-70
2021/08/19 04:25:54;;;;;;;15.40;8.17;;;16.80;99.90;;;;;;5051325;28;20496;-70
2021/08/19 04:28:20;;;;;;;14.10;9.00;;;16.80;99.90;;;;;;5052555;28;20164;-70
2021/08/19 04:30:46;;;;;;;12.13;8.30;;;16.80;99.90;;;;;;5049536;28;20202;-70
2021/08/19 04:33:11;;;;;;;12.50;9.23;;;16.80;99.90;;;;;;5052535;28;20156;-70
2021/08/19 04:35:39;;;;;;;11.00;7.50;;;16.80;99.90;;;;;;5051371;28;20242;-70
2021/08/19 04:38:04;;;;;;;12.13;8.80;;;16.80;99.90;;;;;;5052094;28;20672;-70
2021/08/19 04:40:30;;;;;;;19.30;10.13;;;16.80;99.90;;;;;;5052318;28;20407;-70
2021/08/19 04:42:55;;;;;;;12.40;9.87;;;16.80;99.90;;;;;;5040710;28;20222;-70
2021/08/19 04:45:21;;;;;;;12.10;7.77;;;16.70;99.90;;;;;;5032193;28;20504;-70
2021/08/19 04:47:47;;;;;;;10.30;8.10;;;16.70;99.90;;;;;;5032532;28;20161;-70
2021/08/19 04:50:12;;;;;;;11.53;8.97;;;16.70;99.90;;;;;;5048259;28;20212;-70
2021/08/19 04:52:38;;;;;;;14.90;9.63;;;16.70;99.90;;;;;;5048599;28;20175;-70
2021/08/19 04:55:04;;;;;;;14.13;8.20;;;16.70;99.90;;;;;;5042505;28;20264;-70
2021/08/19 04:57:29;;;;;;;15.03;9.30;;;16.70;99.90;;;;;;5044723;28;20183;-70
2021/08/19 04:59:55;;;;;;;16.10;8.60;;;16.70;99.90;;;;;;5046191;28;20541;-70
2021/08/19 05:02:21;;;;;;;14.27;9.00;;;16.70;99.90;;;;;;5042366;28;20210;-70
2021/08/19 05:04:46;;;;;;;12.30;10.43;;;16.70;99.90;;;;;;5039341;28;20176;-70
2021/08/19 05:07:12;;;;;;;15.57;9.77;;;16.70;99.90;;;;;;5051899;28;20695;-70
2021/08/19 05:09:37;;;;;;;10.83;8.50;;;16.70;99.90;;;;;;5033513;28;20338;-70
2021/08/19 05:12:03;;;;;;;11.47;8.20;;;16.70;99.90;;;;;;5037514;28;20179;-70
2021/08/19 05:14:29;;;;;;;10.90;8.60;;;16.70;99.90;;;;;;5044605;28;20174;-70
2021/08/19 05:16:54;;;;;;;14.20;9.30;;;16.70;99.90;;;;;;5035565;28;20777;-70
2021/08/19 05:19:20;;;;;;;16.57;8.30;;;16.80;99.90;;;;;;5036151;28;20180;-70
2021/08/19 05:21:45;;;;;;;11.40;8.20;;;16.80;99.90;;;;;;5048089;28;20188;-70
2021/08/19 05:24:11;;;;;;;15.40;8.47;;;16.80;99.90;;;;;;5041539;28;20176;-70
2021/08/19 05:26:37;;;;;;;11.27;8.30;;;16.80;99.90;;;;;;5037632;28;20177;-70
2021/08/19 05:29:03;;;;;;;11.43;8.07;;;16.80;99.90;;;;;;5045559;28;20247;-70
2021/08/19 05:31:29;;;;;;;11.43;8.00;;;16.80;99.90;;;;;;5042029;28;20562;-70
2021/08/19 05:33:55;;;;;;;10.43;7.63;;;16.80;99.90;;;;;;5034852;28;20172;-70
2021/08/19 05:36:21;;;;;;;11.87;8.40;;;16.80;99.90;;;;;;5040130;28;20183;-70
2021/08/19 05:38:46;;;;;;;9.00;7.47;;;16.80;99.90;;;;;;5040763;28;20490;-70
2021/08/19 05:41:12;;;;;;;9.37;7.13;;;16.80;99.90;;;;;;5040937;28;21278;-70
2021/08/19 05:43:38;;;;;;;10.30;7.30;;;16.80;99.90;;;;;;5042055;28;20246;-70
2021/08/19 05:46:06;;;;;;;10.00;6.60;;;16.80;99.90;;;;;;5041962;28;20601;-70
2021/08/19 05:48:32;;;;;;;11.47;7.80;;;16.90;99.90;;;;;;5044653;28;20175;-70
2021/08/19 05:50:57;;;;;;;14.07;7.60;;;16.80;99.90;;;;;;5037548;28;20454;-70
2021/08/19 05:53:23;;;;;;;7.17;6.23;;;16.90;99.90;;;;;;5044339;28;20534;-70
2021/08/19 05:55:48;;;;;;;9.23;7.97;;;16.90;99.90;;;;;;5037183;28;20179;-70
2021/08/19 05:58:15;;;;;;;10.73;7.17;;;16.90;99.90;;;;;;5041367;28;20179;-70
2021/08/19 06:00:46;;;;;;;8.30;7.10;;;16.90;99.90;;;;;;5049922;28;20254;-70
2021/08/19 06:03:12;;;;;;;8.27;6.60;;;16.90;99.90;;;;;;5046126;28;20427;-70
2021/08/19 06:05:38;;;;;;;8.90;7.17;;;16.90;99.90;;;;;;5035078;28;20392;-70
2021/08/19 06:08:04;;;;;;;8.87;7.30;;;16.90;99.90;;;;;;5046526;28;20258;-70
2021/08/19 06:10:29;;;;;;;11.20;6.60;;;16.90;99.90;;;;;;5038356;28;20197;-70
2021/08/19 06:12:55;;;;;;;10.47;7.50;;;16.90;99.90;;;;;;5034934;28;20200;-70
2021/08/19 06:15:20;;;;;;;10.47;7.70;;;16.90;99.90;;;;;;5041707;28;20168;-70
2021/08/19 06:17:46;;;;;;;10.53;7.70;;;16.90;99.90;;;;;;5042897;28;20252;-70
2021/08/19 06:20:11;;;;;;;13.93;6.40;;;16.90;99.90;;;;;;5047506;28;20183;-70
2021/08/19 06:22:37;;;;;;;12.07;8.40;;;16.90;99.90;;;;;;5046103;28;20169;-70
2021/08/19 06:25:04;;;;;;;8.67;7.80;;;16.90;99.90;;;;;;5045496;28;20546;-70
2021/08/19 06:27:29;;;;;;;9.93;8.03;;;17.00;99.90;;;;;;5054511;28;20194;-70
2021/08/19 06:29:55;;;;;;;9.60;7.13;;;17.00;99.90;;;;;;5052258;28;20469;-70
2021/08/19 06:32:20;;;;;;;9.27;6.47;;;17.00;99.90;;;;;;5041434;28;20266;-70
2021/08/19 06:34:46;;;;;;;9.67;7.13;;;17.00;99.90;;;;;;5038304;28;20185;-70
2021/08/19 06:37:11;;;;;;;9.07;6.20;;;17.00;99.90;;;;;;5037498;28;20169;-70
2021/08/19 06:39:37;;;;;;;6.87;6.20;;;17.00;99.90;;;;;;5037969;28;20180;-69
2021/08/19 06:42:03;;;;;;;11.40;6.87;;;17.00;99.90;;;;;;5034925;28;20188;-70
2021/08/19 06:44:28;;;;;;;8.90;6.90;;;17.10;99.90;;;;;;5034859;28;20176;-70
2021/08/19 06:46:54;;;;;;;11.70;8.00;;;17.10;99.90;;;;;;5035373;28;20577;-70
2021/08/19 06:49:19;;;;;;;15.57;8.67;;;17.10;99.90;;;;;;5034767;28;20182;-70
2021/08/19 06:51:45;;;;;;;15.63;10.73;;;17.10;99.90;;;;;;5044449;28;20567;-70
2021/08/19 06:54:10;;;;;;;12.50;7.77;;;17.10;99.90;;;;;;5039762;28;20178;-70
2021/08/19 06:56:36;;;;;;;11.97;8.33;;;17.10;99.90;;;;;;5048017;28;20173;-70
2021/08/19 06:59:01;;;;;;;8.97;7.13;;;17.20;99.90;;;;;;5037647;28;20228;-70
2021/08/19 07:01:27;;;;;;;11.87;8.10;;;17.10;99.90;;;;;;5042835;28;20520;-70
2021/08/19 07:03:52;;;;;;;9.90;7.20;;;17.20;99.90;;;;;;5038858;28;20168;-70
2021/08/19 07:06:18;;;;;;;10.70;7.90;;;17.20;99.90;;;;;;5040584;28;20184;-70
2021/08/19 07:08:44;;;;;;;11.83;8.03;;;17.20;99.90;;;;;;5040247;28;20596;-70
2021/08/19 07:11:11;;;;;;;12.90;6.97;;;17.20;99.90;;;;;;5037747;28;20556;-70
2021/08/19 07:13:37;;;;;;;9.10;6.00;;;17.20;99.90;;;;;;5040728;28;20413;-70
2021/08/19 07:16:03;;;;;;;8.67;6.30;;;17.20;99.90;;;;;;5040532;28;20438;-70
2021/08/19 07:18:28;;;;;;;11.47;6.90;;;17.20;99.90;;;;;;5038439;28;20517;-70
2021/08/19 07:20:54;;;;;;;8.07;7.20;;;17.20;99.90;;;;;;5041411;28;20418;-70
2021/08/19 07:23:20;;;;;;;10.13;7.57;;;17.20;99.90;;;;;;5049484;28;20182;-70
2021/08/19 07:25:46;;;;;;;10.13;7.70;;;17.30;99.90;;;;;;5034735;28;20177;-70
2021/08/19 07:28:11;;;;;;;10.57;7.17;;;17.30;99.90;;;;;;5040533;28;20526;-70
2021/08/19 07:30:37;;;;;;;7.97;6.57;;;17.30;99.90;;;;;;5035155;28;20293;-70
2021/08/19 07:33:03;;;;;;;9.73;6.97;;;17.40;99.90;;;;;;5034803;28;20250;-70
2021/08/19 07:35:29;;;;;;;10.73;7.80;;;17.40;99.90;;;;;;5038692;28;20708;-70
2021/08/19 07:37:56;;;;;;;10.43;8.20;;;17.40;99.90;;;;;;5046458;28;20166;-70
2021/08/19 07:40:25;;;;;;;8.93;6.40;;;17.40;99.90;;;;;;5046958;28;20438;-70
2021/08/19 07:42:51;;;;;;;10.40;7.37;;;17.50;99.90;;;;;;5033568;28;20408;-70
2021/08/19 07:45:18;;;;;;;10.17;7.80;;;17.50;99.90;;;;;;5036895;28;20780;-70
2021/08/19 07:47:43;;;;;;;9.50;6.97;;;17.50;99.90;;;;;;5032794;28;20432;-70
2021/08/19 07:50:10;;;;;;;9.30;7.30;;;17.50;99.90;;;;;;5046164;28;20985;-70
2021/08/19 07:52:37;;;;;;;8.47;6.07;;;17.50;99.90;;;;;;5038659;28;20180;-70
2021/08/19 07:55:04;;;;;;;7.77;6.97;;;17.50;99.90;;;;;;5049607;28;20414;-70
2021/08/19 07:57:41;;;;;;;9.37;6.80;;;17.50;99.90;;;;;;5044038;28;20414;-70
2021/08/19 08:00:07;;;;;;;7.23;6.40;;;17.60;99.90;;;;;;5042564;28;20435;-70
2021/08/19 08:02:33;;;;;;;12.13;6.70;;;17.60;99.90;;;;;;5039225;28;20951;-70
2021/08/19 08:04:58;;;;;;;9.17;7.17;;;17.60;99.90;;;;;;5043437;28;20416;-70
2021/08/19 08:07:24;;;;;;;8.90;7.07;;;17.60;99.90;;;;;;5042008;28;20188;-70
2021/08/19 08:09:49;;;;;;;10.83;8.07;;;17.60;99.90;;;;;;5058666;28;20196;-70
2021/08/19 08:12:15;;;;;;;13.03;8.67;;;17.70;99.90;;;;;;5045277;28;20180;-70
2021/08/19 08:14:40;;;;;;;10.30;7.77;;;17.70;99.90;;;;;;5040374;28;20181;-70
2021/08/19 08:17:06;;;;;;;11.40;7.23;;;17.80;99.90;;;;;;5041013;28;20620;-70
2021/08/19 08:19:31;;;;;;;9.00;6.70;;;17.80;99.90;;;;;;5034740;28;20208;-70
2021/08/19 08:21:57;;;;;;;9.50;7.57;;;17.80;99.90;;;;;;5033630;28;20176;-69
2021/08/19 08:24:23;;;;;;;9.60;7.80;;;17.80;99.90;;;;;;5032932;28;20579;-70
2021/08/19 08:26:48;;;;;;;10.37;8.20;;;17.90;99.90;;;;;;5033522;28;20171;-70
2021/08/19 08:29:14;;;;;;;8.90;6.80;;;17.90;99.90;;;;;;5042697;28;20189;-70
2021/08/19 08:31:40;;;;;;;9.87;8.00;;;17.90;99.90;;;;;;5043633;28;20202;-70
2021/08/19 08:34:06;;;;;;;8.77;6.70;;;17.90;99.90;;;;;;5046752;28;20172;-70
2021/08/19 08:36:31;;;;;;;7.63;6.03;;;17.90;99.90;;;;;;5033781;28;20477;-70
2021/08/19 08:38:57;;;;;;;10.23;6.90;;;17.90;99.90;;;;;;5049391;28;20190;-70
2021/08/19 08:41:23;;;;;;;9.17;7.50;;;17.90;99.90;;;;;;5048604;28;20199;-70
2021/08/19 08:43:52;;;;;;;11.77;7.93;;;17.90;99.90;;;;;;5033765;28;20526;-70
2021/08/19 08:46:18;;;;;;;16.83;7.90;;;17.90;99.90;;;;;;5039297;28;20434;-70
2021/08/19 08:48:44;;;;;;;9.87;7.27;;;17.90;99.90;;;;;;5044347;28;20427;-70
2021/08/19 08:51:10;;;;;;;8.73;7.77;;;17.90;99.90;;;;;;5036785;28;20564;-70
2021/08/19 08:53:36;;;;;;;10.77;7.70;;;17.90;99.90;;;;;;5036548;28;20425;-70
2021/08/19 08:56:02;;;;;;;10.43;8.20;;;17.90;99.90;;;;;;5042789;28;20417;-70
2021/08/19 08:58:27;;;;;;;9.83;8.20;;;17.90;99.90;;;;;;5035978;28;20176;-70
2021/08/19 09:00:53;;;;;;;11.07;8.50;;;17.90;99.90;;;;;;5043096;28;20184;-70
2021/08/19 09:03:20;;;;;;;13.47;8.60;;;17.80;99.90;;;;;;5033487;28;20177;-70
2021/08/19 09:05:47;;;;;;;9.77;7.73;;;17.90;99.90;;;;;;5036913;28;20206;-70
2021/08/19 09:08:15;;;;;;;9.03;7.70;;;17.80;99.90;;;;;;5038598;28;20423;-70
2021/08/19 09:10:41;;;;;;;12.10;8.37;;;17.90;99.90;;;;;;5046448;28;20953;-70
2021/08/19 09:13:13;;;;;;;11.33;8.40;;;17.90;99.90;;;;;;5052828;28;20449;-70
2021/08/19 09:15:39;;;;;;;12.13;8.47;;;17.90;99.90;;;;;;5040459;28;20492;-70
2021/08/19 09:18:05;;;;;;;10.10;8.10;;;17.90;99.90;;;;;;5042298;28;20938;-70
2021/08/19 09:20:34;;;;;;;11.37;8.83;;;18.00;99.90;;;;;;5035898;28;20177;-69
2021/08/19 09:25:41;;;;;;;12.67;9.80;;;18.10;99.90;;;;;;5057125;28;20533;-70
2021/08/19 09:28:25;;;;;;;11.07;9.20;;;18.20;99.90;;;;;;5046168;28;20494;-70
2021/08/19 09:31:07;;;;;;;9.17;8.30;;;18.20;99.90;;;;;;5039395;28;20476;-70
2021/08/19 09:33:35;;;;;;;11.50;8.77;;;18.20;99.90;;;;;;5049435;28;20915;-70
2021/08/19 09:36:06;;;;;;;12.10;7.70;;;18.30;99.90;;;;;;5033513;28;20410;-70
2021/08/19 09:38:39;;;;;;;9.57;7.10;;;18.30;99.90;;;;;;5048219;28;20409;-70
2021/08/19 09:41:21;;;;;;;12.33;9.50;;;18.30;99.90;;;;;;5035627;28;20447;-70
2021/08/19 09:43:49;;;;;;;16.07;9.30;;;18.30;99.90;;;;;;5043808;28;20458;-70
2021/08/19 09:46:34;;;;;;;15.33;9.60;;;18.30;99.90;;;;;;5042393;28;20434;-70
2021/08/19 09:49:01;;;;;;;10.87;9.70;;;18.30;99.90;;;;;;5046781;28;20427;-70
2021/08/19 09:51:28;;;;;;;11.23;9.00;;;18.20;99.90;;;;;;5034367;28;20428;-70
2021/08/19 09:53:58;;;;;;;14.70;9.30;;;18.30;99.90;;;;;;5027898;28;20423;-70
2021/08/19 09:56:36;;;;;;;10.40;9.20;;;18.30;99.90;;;;;;5039688;28;20427;-70
2021/08/19 09:59:19;;;;;;;12.90;8.67;;;18.30;99.90;;;;;;5039502;28;20499;-70
2021/08/19 10:01:46;;;;;;;13.37;9.83;;;18.40;99.90;;;;;;5044045;28;20414;-71
2021/08/19 10:04:12;;;;;;;11.60;9.03;;;18.40;99.90;;;;;;5041888;28;20468;-70
2021/08/19 10:06:38;;;;;;;9.80;7.70;;;18.40;99.90;;;;;;5047431;28;20433;-70
2021/08/19 10:09:03;;;;;;;9.33;7.73;;;18.50;99.90;;;;;;5047625;28;20414;-70
2021/08/19 10:11:31;;;;;;;10.83;7.30;;;18.60;99.90;;;;;;5046138;28;20234;-71
2021/08/19 10:13:57;;;;;;;9.73;6.90;;;18.80;99.90;;;;;;5046212;28;20200;-71
2021/08/19 10:16:23;;;;;;;9.47;6.93;;;19.00;99.90;;;;;;5046107;28;20458;-70
2021/08/19 10:18:51;;;;;;;8.97;6.53;;;19.10;99.90;;;;;;5046345;28;20202;-70
2021/08/19 10:21:17;;;;;;;8.53;7.00;;;19.30;99.90;;;;;;5039188;28;20444;-70
2021/08/19 10:23:47;;;;;;;9.33;7.40;;;19.30;99.90;;;;;;5042381;28;20549;-70
2021/08/19 10:26:18;;;;;;;7.50;6.70;;;19.40;99.90;;;;;;5043531;28;20454;-70
2021/08/19 10:28:53;;;;;;;8.30;6.73;;;19.40;99.90;;;;;;5040579;28;20422;-70
2021/08/19 10:31:41;;;;;;;6.63;5.97;;;19.30;99.90;;;;;;5038261;28;20522;-70
2021/08/19 10:34:07;;;;;;;7.70;5.53;;;19.30;99.90;;;;;;5041441;28;20803;-70
2021/08/19 10:36:49;;;;;;;7.07;5.80;;;19.30;99.90;;;;;;5036132;28;20422;-70
2021/08/19 10:41:56;;;;;;;5.77;4.57;;;19.40;99.90;;;;;;5065578;28;21076;-70
2021/08/19 10:44:44;;;;;;;5.97;5.37;;;19.50;99.90;;;;;;5047814;28;20967;-70
2021/08/19 10:47:32;;;;;;;6.87;5.90;;;19.60;99.90;;;;;;5046402;28;20437;-70
2021/08/19 10:50:22;;;;;;;5.63;5.03;;;19.70;99.90;;;;;;5045219;28;20564;-70
2021/08/19 10:52:48;;;;;;;5.27;4.60;;;19.80;99.90;;;;;;5044288;28;20427;-70
2021/08/19 10:55:15;;;;;;;6.67;4.93;;;19.90;99.90;;;;;;5045902;28;20502;-70
2021/08/19 10:57:49;;;;;;;5.80;4.80;;;20.10;99.90;;;;;;5042326;28;20415;-70
2021/08/19 11:00:16;;;;;;;5.73;4.47;;;20.20;99.90;;;;;;5040486;28;20469;-70
2021/08/19 11:02:47;;;;;;;9.10;4.60;;;20.30;99.90;;;;;;5046436;28;20427;-70
2021/08/19 11:05:33;;;;;;;8.33;4.40;;;20.30;99.90;;;;;;5048877;28;20962;-70
2021/08/19 11:08:01;;;;;;;6.50;4.50;;;20.30;99.90;;;;;;5039923;28;20529;-70
2021/08/19 11:10:30;;;;;;;4.30;3.90;;;20.20;99.90;;;;;;5041282;28;20435;-71
2021/08/19 11:13:13;;;;;;;4.87;4.43;;;20.10;99.90;;;;;;5038649;28;20522;-70
2021/08/19 11:15:46;;;;;;;4.43;3.90;;;20.00;99.90;;;;;;5042973;28;20433;-70
2021/08/19 11:18:25;;;;;;;5.23;3.73;;;19.80;99.90;;;;;;5048296;28;20398;-70
2021/08/19 11:20:51;;;;;;;4.23;3.70;;;19.70;99.90;;;;;;5048512;28;20454;-70
2021/08/19 11:23:17;;;;;;;5.47;4.00;;;19.70;99.90;;;;;;5048490;28;20908;-70
2021/08/19 11:25:45;;;;;;;4.30;3.83;;;19.60;99.90;;;;;;5046866;28;20630;-71
2021/08/19 11:28:16;;;;;;;6.67;4.80;;;19.50;99.90;;;;;;5047811;28;20255;-70
2021/08/19 11:30:45;;;;;;;4.67;3.87;;;19.50;99.90;;;;;;5045059;28;20422;-70
2021/08/19 11:33:21;;;;;;;7.27;4.83;;;19.40;99.90;;;;;;5048575;28;20426;-70
2021/08/19 11:35:49;;;;;;;6.53;4.77;;;19.40;99.90;;;;;;5033800;28;20997;-71
2021/08/19 11:40:57;;;;;;;6.57;4.83;;;19.30;99.90;;;;;;5043984;28;20533;-71
2021/08/19 11:43:32;;;;;;;4.93;4.27;;;19.40;99.90;;;;;;5026523;28;20423;-71
2021/08/19 11:46:27;;;;;;;6.47;3.73;;;19.40;99.90;;;;;;5024576;28;20501;-70
2021/08/19 11:51:32;;;;;;;5.30;4.13;;;19.40;99.90;;;;;;5078566;27;20562;-70
2021/08/19 11:56:38;;;;;;;6.90;3.90;;;19.40;99.90;;;;;;5066162;28;20539;-70
2021/08/19 11:59:19;;;;;;;5.50;3.70;;;19.40;99.90;;;;;;5042487;28;20437;-70
2021/08/19 12:07:05;;;;;;;3.37;3.07;;;19.40;99.90;;;;;;5068142;28;21147;-70
2021/08/19 12:09:34;;;;;;;4.67;3.60;;;19.40;99.90;;;;;;5050114;28;20425;-70
2021/08/19 12:12:04;;;;;;;5.17;4.07;;;19.50;99.90;;;;;;5036975;28;20279;-70
2021/08/19 12:14:30;;;;;;;5.80;4.30;;;19.50;99.90;;;;;;5039887;28;20846;-70
2021/08/19 12:16:56;;;;;;;5.13;3.53;;;19.60;99.90;;;;;;5039267;28;20506;-70
2021/08/19 12:22:00;;;;;;;7.87;4.90;;;19.60;99.90;;;;;;5059234;28;20529;-71
2021/08/19 12:27:23;;;;;;;4.20;3.13;;;19.80;99.90;;;;;;5067153;28;20531;-71
2021/08/19 12:35:13;;;;;;;5.37;3.70;;;19.90;99.90;;;;;;5065228;28;20546;-71
2021/08/19 12:37:51;;;;;;;4.90;4.13;;;19.90;99.90;;;;;;5054297;28;20413;-70
2021/08/19 12:40:16;;;;;;;4.90;3.77;;;19.80;99.90;;;;;;5048985;28;20954;-71
2021/08/19 12:42:44;;;;;;;5.33;4.13;;;19.80;99.90;;;;;;5050516;28;20470;-70
2021/08/19 12:48:07;;;;;;;5.13;4.43;;;19.80;99.90;;;;;;5052910;28;20547;-71
2021/08/19 12:50:35;;;;;;;4.00;3.60;;;19.90;99.90;;;;;;5044554;28;20426;-71
2021/08/19 12:53:09;;;;;;;4.27;3.67;;;19.90;99.90;;;;;;5040406;28;20426;-71
2021/08/19 12:55:36;;;;;;;5.57;4.20;;;19.90;99.90;;;;;;5051067;28;20490;-71
2021/08/19 12:58:02;;;;;;;6.77;4.40;;;19.80;99.90;;;;;;5052579;28;20421;-71
2021/08/19 13:00:29;;;;;;;4.10;3.60;;;19.70;99.90;;;;;;5057977;28;20485;-71
2021/08/19 13:02:56;;;;;;;5.53;4.33;;;19.70;99.90;;;;;;5053910;28;20175;-71
2021/08/19 13:05:24;;;;;;;6.20;4.60;;;19.60;99.90;;;;;;5051457;28;20422;-71
2021/08/19 13:07:51;;;;;;;7.53;4.17;;;19.50;99.90;;;;;;5046941;28;20530;-71
2021/08/19 13:10:19;;;;;;;6.10;5.50;;;19.50;99.90;;;;;;5049189;28;20509;-71
2021/08/19 13:12:45;;;;;;;8.87;5.30;;;19.50;99.90;;;;;;5049385;28;20923;-71
2021/08/19 13:15:13;;;;;;;6.83;5.00;;;19.40;99.90;;;;;;5047995;28;20506;-71